Ireland, Texas
Current Conditions -  °F | °C
As of 1:35 PM on Thursday 27 Nov 2014 (Local Time) from KGOP Reporting Station
Clear Clear  
Wind Chill: 57°   Ceiling: Unl
Heat Index: 57°   Visibility: 10mi
Dew Point: 23°   Wind: 0mph
Humidity: 27%   Direction: NA
Pressure: 30.47"   Gusts: NA
Location:  31.5973°N, 97.7586°W
Report Text: KGOP 271935Z AUTO 00000KT 10SM CLR 14/M05 A3047 RMK AO2 PWINO
Loading
Personal Weather Stations






























Interactive Weather Map New forecast layout! Learn more

10-Day Weather Forecast

Advertisements
Track Severe Weather on mobile